Caledon, Canada
Current Conditions -  °F | °C
As of 9:00 PM on Friday 24 Oct 2014 (Local Time) from CYYZ Reporting Station
Broken Clouds Broken Clouds  
Wind Chill: 12°   Ceiling: 7500
Heat Index: 12°   Visibility: 15mi
Dew Point:   Wind: 9mph
Humidity: 62%   Direction: 310°NW
Pressure: 29.94"   Gusts: NA
Location:  43.87°N, 80°W
Report Text: CYYZ 250100Z 31008KT 15SM SCT062 BKN075 12/05 A2994 RMK SC4AC2 SLP142
Loading
Personal Weather Stations






























Interactive Weather Map
Tropical Storm Tracking
New forecast layout! Learn more

10-Day Weather Forecast

Advertisements
Track Severe Weather on mobile